Time;durP1;ratioP1;P1;durP2;ratioP2;P2;SDS_P1;SDS_P2;PMS_P1;PMS_P2;Temp;Humidity;BMP_temperature;BMP_pressure;BME280_temperature;BME280_humidity;BME280_pressure;Samples;Min_cycle;Max_cycle;Signal;HPM_P1;HPM_P2
2022/08/19 00:00:27;;;;;;;8.07;5.65;;;18.30;99.90;;;;;;4979549;28;20332;-73
2022/08/19 00:02:53;;;;;;;9.38;5.47;;;18.30;99.90;;;;;;4994431;28;20039;-73
2022/08/19 00:05:21;;;;;;;8.23;5.22;;;18.30;99.90;;;;;;4979634;28;20429;-73
2022/08/19 00:07:48;;;;;;;7.22;5.55;;;18.20;99.90;;;;;;4978821;28;20041;-73
2022/08/19 00:10:15;;;;;;;7.32;5.50;;;18.30;99.90;;;;;;4979330;28;20053;-73
2022/08/19 00:12:41;;;;;;;7.45;5.00;;;18.30;99.90;;;;;;4994583;28;20130;-73
2022/08/19 00:15:11;;;;;;;6.78;5.43;;;18.30;99.90;;;;;;4979511;28;20125;-74
2022/08/19 00:17:38;;;;;;;6.95;5.15;;;18.30;99.90;;;;;;4979377;28;20448;-73
2022/08/19 00:20:05;;;;;;;10.98;7.13;;;18.30;99.90;;;;;;4979176;28;20078;-73
2022/08/19 00:22:31;;;;;;;8.00;6.03;;;18.40;99.90;;;;;;4979420;28;20421;-73
2022/08/19 00:24:56;;;;;;;8.45;5.53;;;18.50;99.90;;;;;;4978832;28;20371;-73
2022/08/19 00:27:22;;;;;;;6.78;5.10;;;18.50;99.90;;;;;;4979281;28;20118;-73
2022/08/19 00:29:48;;;;;;;7.63;5.63;;;18.50;99.90;;;;;;4978888;28;20078;-73
2022/08/19 00:32:13;;;;;;;7.72;5.53;;;18.40;99.90;;;;;;4994225;28;20519;-73
2022/08/19 00:34:39;;;;;;;9.80;6.38;;;18.40;99.90;;;;;;4994497;28;20035;-73
2022/08/19 00:37:05;;;;;;;6.57;5.50;;;18.30;99.90;;;;;;4994095;28;20048;-73
2022/08/19 00:39:30;;;;;;;8.90;5.93;;;18.20;99.90;;;;;;4978803;28;20051;-73
2022/08/19 00:41:57;;;;;;;6.03;5.18;;;18.10;99.90;;;;;;4978852;28;20042;-73
2022/08/19 00:44:28;;;;;;;9.00;5.85;;;18.00;99.90;;;;;;4978782;28;20065;-73
2022/08/19 00:46:56;;;;;;;8.02;5.68;;;18.10;99.90;;;;;;4978633;28;20505;-73
2022/08/19 00:49:41;;;;;;;9.35;5.80;;;18.10;99.90;;;;;;4978801;28;20043;-73
2022/08/19 00:52:11;;;;;;;11.27;6.03;;;18.20;99.90;;;;;;4977732;28;20046;-73
2022/08/19 00:54:40;;;;;;;11.02;6.53;;;18.20;99.90;;;;;;4978280;28;20043;-73
2022/08/19 00:57:10;;;;;;;9.05;5.93;;;18.20;99.90;;;;;;4978702;28;20418;-73
2022/08/19 00:59:38;;;;;;;10.00;6.13;;;18.10;99.90;;;;;;4977713;28;20412;-73
2022/08/19 01:02:04;;;;;;;8.13;5.93;;;18.10;99.90;;;;;;4978517;28;20344;-73
2022/08/19 01:04:30;;;;;;;9.95;6.28;;;18.10;99.90;;;;;;4993795;28;20426;-73
2022/08/19 01:06:57;;;;;;;8.15;7.25;;;18.10;99.90;;;;;;4977657;28;20058;-73
2022/08/19 01:09:23;;;;;;;9.48;6.53;;;18.10;99.90;;;;;;4978319;28;20050;-73
2022/08/19 01:11:49;;;;;;;8.27;6.10;;;18.00;99.90;;;;;;4978405;28;20092;-73
2022/08/19 01:14:16;;;;;;;12.48;6.93;;;18.00;99.90;;;;;;4978265;28;20050;-73
2022/08/19 01:16:44;;;;;;;8.85;6.50;;;17.80;99.90;;;;;;4978146;28;20449;-73
2022/08/19 01:19:33;;;;;;;9.35;6.30;;;17.80;99.90;;;;;;4978007;28;20043;-73
2022/08/19 01:22:05;;;;;;;8.43;6.60;;;17.80;99.90;;;;;;4978194;28;20046;-73
2022/08/19 01:24:31;;;;;;;7.28;6.13;;;17.70;99.90;;;;;;4978001;28;20050;-73
2022/08/19 01:26:57;;;;;;;9.60;6.75;;;17.70;99.90;;;;;;4978237;28;20034;-73
2022/08/19 01:29:23;;;;;;;8.50;6.85;;;17.70;99.90;;;;;;4978055;28;20063;-73
2022/08/19 01:31:51;;;;;;;8.85;6.00;;;17.70;99.90;;;;;;4977944;28;20527;-73
2022/08/19 01:34:18;;;;;;;7.45;5.65;;;17.70;99.90;;;;;;4976830;28;20094;-73
2022/08/19 01:36:47;;;;;;;8.23;6.53;;;17.70;99.90;;;;;;4976862;28;20046;-73
2022/08/19 01:39:16;;;;;;;8.30;5.97;;;17.70;99.90;;;;;;4977690;28;20497;-73
2022/08/19 01:41:42;;;;;;;9.02;6.43;;;17.70;99.90;;;;;;4977972;28;20035;-73
2022/08/19 01:44:09;;;;;;;11.57;6.30;;;17.70;99.90;;;;;;4977800;28;20038;-73
2022/08/19 01:46:36;;;;;;;7.15;5.65;;;17.60;99.90;;;;;;4978039;28;20039;-73
2022/08/19 01:49:03;;;;;;;6.57;5.88;;;17.60;99.90;;;;;;4977634;28;20042;-74
2022/08/19 01:51:30;;;;;;;9.90;6.55;;;17.70;99.90;;;;;;4993104;28;20053;-73
2022/08/19 01:53:56;;;;;;;8.90;6.63;;;17.60;99.90;;;;;;4992319;28;20422;-73
2022/08/19 01:56:23;;;;;;;8.93;6.97;;;17.70;99.90;;;;;;4977873;28;20034;-73
2022/08/19 01:59:05;;;;;;;9.93;6.80;;;17.60;99.90;;;;;;4977854;28;20047;-73
2022/08/19 02:01:34;;;;;;;11.35;7.13;;;17.70;99.90;;;;;;4992759;28;20054;-73
2022/08/19 02:04:02;;;;;;;10.13;6.88;;;17.60;99.90;;;;;;4976794;28;20062;-73
2022/08/19 02:06:29;;;;;;;8.20;7.03;;;17.60;99.90;;;;;;4976552;28;20038;-73
2022/08/19 02:08:55;;;;;;;11.32;7.50;;;17.50;99.90;;;;;;4977638;28;20070;-73
2022/08/19 02:11:26;;;;;;;8.65;6.60;;;17.50;99.90;;;;;;4976706;28;20047;-73
2022/08/19 02:13:52;;;;;;;8.43;6.43;;;17.50;99.90;;;;;;4993030;28;20082;-73
2022/08/19 02:16:18;;;;;;;8.95;6.68;;;17.50;99.90;;;;;;4977310;28;20439;-74
2022/08/19 02:18:46;;;;;;;11.18;7.30;;;17.50;99.90;;;;;;4977595;28;20039;-73
2022/08/19 02:21:13;;;;;;;9.65;7.10;;;17.40;99.90;;;;;;4977631;28;20140;-73
2022/08/19 02:23:38;;;;;;;9.27;7.03;;;17.40;99.90;;;;;;4977035;28;20050;-73
2022/08/19 02:26:04;;;;;;;9.65;6.63;;;17.40;99.90;;;;;;4977453;28;20039;-73
2022/08/19 02:28:30;;;;;;;9.15;6.63;;;17.50;99.90;;;;;;4977345;28;20444;-73
2022/08/19 02:30:55;;;;;;;11.07;6.65;;;17.40;99.90;;;;;;4976989;28;20055;-73
2022/08/19 02:33:21;;;;;;;10.05;7.28;;;17.50;99.90;;;;;;4981233;28;20047;-73
2022/08/19 02:35:47;;;;;;;8.57;6.45;;;17.50;99.90;;;;;;4980100;28;20050;-74
2022/08/19 02:38:25;;;;;;;7.82;6.18;;;17.40;99.90;;;;;;4981395;28;20039;-73
2022/08/19 02:41:01;;;;;;;10.98;7.28;;;17.40;99.90;;;;;;4980010;28;20043;-73
2022/08/19 02:43:29;;;;;;;8.90;6.72;;;17.30;99.90;;;;;;4980954;28;20437;-73
2022/08/19 02:45:55;;;;;;;10.90;7.15;;;17.30;99.90;;;;;;4981307;28;20101;-73
2022/08/19 02:48:23;;;;;;;9.35;7.57;;;17.40;99.90;;;;;;4996034;28;20047;-73
2022/08/19 02:50:54;;;;;;;9.70;6.93;;;17.30;99.90;;;;;;4980972;28;20050;-73
2022/08/19 02:53:22;;;;;;;10.45;7.03;;;17.30;99.90;;;;;;4980507;28;20070;-72
2022/08/19 02:55:49;;;;;;;7.55;6.28;;;17.40;99.90;;;;;;4980790;28;20047;-73
2022/08/19 02:58:16;;;;;;;9.25;6.43;;;17.50;99.90;;;;;;4980671;28;20417;-73
2022/08/19 03:00:48;;;;;;;8.85;6.68;;;17.50;99.90;;;;;;4980531;28;20038;-73
2022/08/19 03:03:15;;;;;;;8.60;6.47;;;17.40;99.90;;;;;;4980862;28;20113;-73
2022/08/19 03:05:41;;;;;;;10.45;6.20;;;17.40;99.90;;;;;;4980778;28;20031;-73
2022/08/19 03:08:08;;;;;;;7.45;6.13;;;17.40;99.90;;;;;;4980808;28;20043;-73
2022/08/19 03:10:42;;;;;;;9.65;5.95;;;17.40;99.90;;;;;;4980555;28;20042;-72
2022/08/19 03:13:08;;;;;;;11.10;6.75;;;17.40;99.90;;;;;;4980771;28;20039;-73
2022/08/19 03:15:34;;;;;;;8.75;5.85;;;17.30;99.90;;;;;;4979740;28;20145;-73
2022/08/19 03:17:59;;;;;;;9.23;6.07;;;17.30;99.90;;;;;;4980595;28;20457;-73
2022/08/19 03:20:26;;;;;;;8.60;5.95;;;17.30;99.90;;;;;;4980286;28;20043;-73
2022/08/19 03:22:51;;;;;;;9.48;6.93;;;17.30;99.90;;;;;;4980129;28;20040;-73
2022/08/19 03:25:17;;;;;;;8.75;6.68;;;17.30;99.90;;;;;;4979893;28;20089;-73
2022/08/19 03:27:43;;;;;;;11.32;6.57;;;17.30;99.90;;;;;;4979243;28;20038;-73
2022/08/19 03:30:10;;;;;;;8.77;6.85;;;17.30;99.90;;;;;;4979987;28;20146;-73
2022/08/19 03:32:36;;;;;;;8.48;6.85;;;17.40;99.90;;;;;;4980233;28;20345;-73
2022/08/19 03:35:02;;;;;;;10.73;6.93;;;17.40;99.90;;;;;;4995591;28;20113;-72
2022/08/19 03:37:28;;;;;;;10.35;7.38;;;17.30;99.90;;;;;;4979196;28;20050;-74
2022/08/19 03:39:54;;;;;;;9.32;6.72;;;17.30;99.90;;;;;;4980100;28;20069;-73
2022/08/19 03:42:19;;;;;;;10.50;6.97;;;17.30;99.90;;;;;;4980025;28;20092;-72
2022/08/19 03:44:45;;;;;;;8.77;7.60;;;17.30;99.90;;;;;;4978860;28;20342;-72
2022/08/19 03:47:15;;;;;;;9.20;6.95;;;17.20;99.90;;;;;;4980012;28;20090;-72
2022/08/19 03:49:41;;;;;;;9.88;7.25;;;17.30;99.90;;;;;;4979884;28;20393;-72
2022/08/19 03:52:07;;;;;;;10.15;7.22;;;17.20;99.90;;;;;;4980024;28;20035;-73
2022/08/19 03:54:34;;;;;;;9.50;7.00;;;17.10;99.90;;;;;;4979548;28;20046;-72
2022/08/19 03:56:59;;;;;;;10.27;6.93;;;17.20;99.90;;;;;;4978816;28;20082;-72
2022/08/19 03:59:29;;;;;;;10.85;6.95;;;17.20;99.90;;;;;;4994846;28;20038;-72
2022/08/19 04:01:56;;;;;;;8.75;6.90;;;17.20;99.90;;;;;;4979772;28;20030;-72
2022/08/19 04:04:22;;;;;;;9.90;7.00;;;17.30;99.90;;;;;;4979656;28;20443;-72
2022/08/19 04:06:49;;;;;;;10.65;7.63;;;17.20;99.90;;;;;;4979575;28;20122;-73
2022/08/19 04:09:15;;;;;;;13.07;7.72;;;17.20;99.90;;;;;;4979670;28;20549;-73
2022/08/19 04:11:45;;;;;;;10.75;8.05;;;17.20;99.90;;;;;;4979513;28;20050;-73
2022/08/19 04:14:18;;;;;;;12.95;8.38;;;17.20;99.90;;;;;;4979645;28;20038;-72
2022/08/19 04:16:46;;;;;;;11.70;8.48;;;17.10;99.90;;;;;;4979321;28;20133;-73
2022/08/19 04:19:13;;;;;;;11.88;8.38;;;17.10;99.90;;;;;;4979234;28;20199;-73
2022/08/19 04:21:38;;;;;;;12.85;8.93;;;17.10;99.90;;;;;;4979601;28;20121;-72
2022/08/19 04:24:05;;;;;;;12.32;8.93;;;17.20;99.90;;;;;;4979034;28;20374;-72
2022/08/19 04:26:34;;;;;;;11.93;9.00;;;17.20;99.90;;;;;;4979402;28;20035;-73
2022/08/19 04:29:02;;;;;;;15.20;9.40;;;17.20;99.90;;;;;;4979000;28;20043;-73
2022/08/19 04:31:30;;;;;;;11.98;8.85;;;17.10;99.90;;;;;;4978553;28;20337;-73
2022/08/19 04:33:58;;;;;;;15.63;9.70;;;17.10;99.90;;;;;;4994095;28;20078;-73
2022/08/19 04:36:27;;;;;;;10.85;8.52;;;17.00;99.90;;;;;;4978950;28;20492;-73
2022/08/19 04:38:55;;;;;;;13.45;9.13;;;17.10;99.90;;;;;;4979240;28;20121;-72
2022/08/19 04:44:05;;;;;;;14.18;9.55;;;17.10;99.90;;;;;;4979046;28;20094;-72
2022/08/19 04:46:31;;;;;;;16.83;10.73;;;17.20;99.90;;;;;;4978825;28;20042;-72
2022/08/19 04:48:58;;;;;;;14.70;10.20;;;17.40;99.90;;;;;;4978815;28;20465;-72
2022/08/19 04:51:23;;;;;;;15.75;10.90;;;17.50;99.90;;;;;;4978894;28;20057;-72
2022/08/19 04:53:51;;;;;;;12.68;9.02;;;17.50;99.90;;;;;;4978117;28;20122;-72
2022/08/19 04:56:19;;;;;;;19.35;10.85;;;17.50;99.90;;;;;;4978436;28;20110;-72
2022/08/19 04:58:45;;;;;;;14.05;10.10;;;17.50;99.90;;;;;;4978702;28;20043;-73
2022/08/19 05:01:17;;;;;;;13.20;9.88;;;17.60;99.90;;;;;;4978727;28;20381;-73
2022/08/19 05:03:43;;;;;;;15.00;9.40;;;17.70;99.90;;;;;;4978538;28;20122;-73
2022/08/19 05:06:12;;;;;;;14.25;8.98;;;17.70;99.90;;;;;;4978779;28;20121;-72
2022/08/19 05:08:43;;;;;;;12.57;9.27;;;17.60;99.90;;;;;;4978452;28;20084;-72
2022/08/19 05:11:17;;;;;;;13.68;9.15;;;17.60;99.90;;;;;;4978311;28;20389;-73
2022/08/19 05:13:44;;;;;;;12.77;9.18;;;17.60;99.90;;;;;;4978589;28;20053;-73
2022/08/19 05:16:12;;;;;;;11.93;8.30;;;17.50;99.90;;;;;;4978508;28;20043;-73
2022/08/19 05:24:08;;;;;;;13.68;9.88;;;17.70;99.90;;;;;;4978017;28;20053;-75
2022/08/19 05:26:45;;;;;;;14.60;9.65;;;17.80;99.90;;;;;;4993344;28;20078;-72
2022/08/19 05:29:14;;;;;;;13.77;9.68;;;17.90;99.90;;;;;;4977970;28;20061;-73
2022/08/19 05:31:40;;;;;;;13.30;8.85;;;18.10;99.90;;;;;;4993181;28;20113;-73
2022/08/19 05:34:06;;;;;;;13.32;10.10;;;18.20;99.90;;;;;;4977914;28;20389;-73
2022/08/19 05:36:44;;;;;;;17.35;9.70;;;18.30;99.90;;;;;;4978197;28;20081;-73
2022/08/19 05:39:17;;;;;;;11.85;7.97;;;18.50;99.90;;;;;;4977958;28;20043;-73
2022/08/19 05:41:47;;;;;;;11.10;8.63;;;18.50;99.90;;;;;;4978068;28;20042;-72
2022/08/19 05:44:14;;;;;;;19.88;11.48;;;18.60;99.90;;;;;;4977887;28;20433;-73
2022/08/19 05:46:46;;;;;;;15.90;10.82;;;18.60;99.90;;;;;;4977973;28;20110;-72
2022/08/19 05:49:14;;;;;;;16.83;9.80;;;18.80;99.90;;;;;;4978121;28;20325;-72
2022/08/19 05:51:40;;;;;;;16.02;10.13;;;18.80;99.90;;;;;;4977806;28;20122;-73
2022/08/19 05:54:08;;;;;;;14.02;9.70;;;18.90;99.90;;;;;;4992693;28;20117;-72
2022/08/19 05:56:37;;;;;;;14.50;10.45;;;19.10;99.90;;;;;;4977645;28;20560;-73
2022/08/19 05:59:08;;;;;;;12.90;9.27;;;19.10;99.90;;;;;;4977859;28;20043;-73
2022/08/19 06:01:34;;;;;;;13.90;10.27;;;19.30;99.90;;;;;;4977876;28;20126;-73
2022/08/19 06:04:00;;;;;;;17.08;11.02;;;19.40;99.90;;;;;;4977743;28;20054;-73
2022/08/19 06:06:26;;;;;;;17.25;11.45;;;19.60;99.90;;;;;;4977502;28;20520;-73
2022/08/19 06:08:51;;;;;;;18.05;11.50;;;19.60;99.90;;;;;;4977612;28;20078;-73
2022/08/19 06:11:22;;;;;;;16.42;10.60;;;19.70;99.90;;;;;;4977805;28;20051;-72
2022/08/19 06:13:52;;;;;;;21.83;12.25;;;19.80;99.90;;;;;;4992792;28;20043;-73
2022/08/19 06:16:24;;;;;;;16.42;10.50;;;19.80;99.90;;;;;;4977636;28;20046;-74
2022/08/19 06:18:52;;;;;;;14.82;10.45;;;19.90;99.90;;;;;;4977455;28;20039;-73
2022/08/19 06:21:28;;;;;;;17.42;12.48;;;20.10;99.90;;;;;;4977530;28;20054;-73
2022/08/19 06:23:56;;;;;;;13.88;10.63;;;20.20;99.90;;;;;;4977601;28;20042;-73
2022/08/19 06:26:23;;;;;;;16.23;11.20;;;20.30;99.90;;;;;;4992708;28;20328;-73
2022/08/19 06:28:49;;;;;;;17.27;11.02;;;20.40;99.90;;;;;;4977224;28;20043;-74
2022/08/19 06:31:20;;;;;;;14.48;10.55;;;20.40;99.90;;;;;;4977393;28;20054;-73
2022/08/19 06:33:47;;;;;;;13.77;9.20;;;20.40;99.90;;;;;;4977352;28;20441;-73
2022/08/19 06:36:29;;;;;;;15.85;9.93;;;20.50;99.90;;;;;;4977602;28;20071;-73
2022/08/19 06:38:57;;;;;;;15.25;10.25;;;20.60;99.90;;;;;;4977528;28;20039;-73
2022/08/19 06:41:24;;;;;;;14.75;10.48;;;20.80;99.90;;;;;;4977451;28;20049;-73
2022/08/19 06:43:49;;;;;;;16.80;10.65;;;20.80;99.90;;;;;;4977372;28;20043;-73
2022/08/19 06:46:17;;;;;;;13.45;10.32;;;20.80;99.90;;;;;;4977477;28;20043;-73
2022/08/19 06:48:43;;;;;;;16.63;11.20;;;20.90;99.90;;;;;;4977227;28;20118;-73
2022/08/19 06:51:08;;;;;;;18.02;11.38;;;21.00;99.90;;;;;;4977198;28;20129;-74
2022/08/19 06:53:34;;;;;;;15.23;10.23;;;21.10;99.90;;;;;;4976697;28;20073;-73
2022/08/19 06:56:02;;;;;;;17.90;12.20;;;21.20;99.90;;;;;;4977108;28;20038;-73
2022/08/19 06:58:31;;;;;;;14.73;11.10;;;21.20;99.90;;;;;;4977342;28;20053;-72
2022/08/19 07:01:00;;;;;;;15.65;11.05;;;21.40;99.90;;;;;;4977120;28;20043;-73
2022/08/19 07:03:28;;;;;;;15.15;10.75;;;21.60;99.90;;;;;;4977362;28;20428;-73
2022/08/19 07:05:54;;;;;;;20.02;11.85;;;21.70;99.90;;;;;;4977062;28;20035;-73
2022/08/19 07:08:20;;;;;;;17.55;10.45;;;21.80;99.90;;;;;;4976918;28;20042;-73
2022/08/19 07:10:46;;;;;;;17.40;11.30;;;21.90;99.90;;;;;;4977123;28;20038;-73
2022/08/19 07:13:12;;;;;;;13.10;10.52;;;21.90;99.90;;;;;;4992293;28;20054;-70
2022/08/19 07:15:37;;;;;;;15.50;10.68;;;21.90;99.90;;;;;;4976960;28;20042;-71
2022/08/19 07:18:03;;;;;;;19.73;10.52;;;21.90;99.90;;;;;;4978276;28;20058;-70
2022/08/19 07:20:29;;;;;;;12.68;9.93;;;21.90;99.90;;;;;;4980480;28;20057;-70
2022/08/19 07:22:54;;;;;;;16.77;10.30;;;22.10;99.90;;;;;;4980324;28;20319;-70
2022/08/19 07:25:21;;;;;;;15.95;9.85;;;22.20;99.90;;;;;;4979043;28;20117;-70
2022/08/19 07:27:50;;;;;;;13.90;10.40;;;22.30;99.90;;;;;;4980424;28;20049;-70
2022/08/19 07:30:16;;;;;;;19.77;10.20;;;22.10;99.90;;;;;;4980642;28;20187;-71
2022/08/19 07:32:42;;;;;;;12.52;9.23;;;22.00;99.90;;;;;;4982903;28;20058;-72
2022/08/19 07:35:09;;;;;;;16.92;10.70;;;22.00;99.90;;;;;;4980606;28;20049;-71
2022/08/19 07:37:36;;;;;;;17.00;10.90;;;22.10;99.90;;;;;;4980049;28;20043;-70
2022/08/19 07:40:06;;;;;;;14.10;9.88;;;22.10;99.90;;;;;;4980088;28;20050;-71
2022/08/19 07:42:31;;;;;;;17.13;10.75;;;22.10;99.90;;;;;;4980137;28;20035;-70
2022/08/19 07:44:58;;;;;;;14.60;9.82;;;22.20;99.90;;;;;;4979970;28;20070;-70
2022/08/19 07:47:24;;;;;;;14.77;9.80;;;22.10;99.90;;;;;;4980228;28;20117;-70
2022/08/19 07:49:49;;;;;;;15.90;9.55;;;22.00;99.90;;;;;;4979863;28;20193;-71
2022/08/19 07:52:16;;;;;;;12.25;8.93;;;22.00;99.90;;;;;;4980110;28;20038;-71
2022/08/19 07:54:42;;;;;;;12.10;9.07;;;22.00;99.90;;;;;;4979726;28;20051;-71
2022/08/19 07:57:08;;;;;;;11.77;7.95;;;21.90;99.90;;;;;;4979915;28;20042;-71
2022/08/19 07:59:35;;;;;;;11.20;8.35;;;22.10;99.90;;;;;;4979784;28;20385;-71
2022/08/19 08:02:02;;;;;;;10.15;7.80;;;22.20;99.90;;;;;;4979839;28;20049;-70
2022/08/19 08:09:57;;;;;;;12.20;7.95;;;22.30;99.90;;;;;;4977435;28;20613;-69
2022/08/19 08:12:30;;;;;;;12.50;7.47;;;22.80;99.90;;;;;;4979170;28;20114;-70
2022/08/19 08:15:04;;;;;;;10.88;8.45;;;23.10;99.90;;;;;;4978977;28;20035;-70
2022/08/19 08:17:31;;;;;;;12.50;9.32;;;23.30;99.90;;;;;;4979292;28;20053;-70
2022/08/19 08:19:57;;;;;;;12.20;8.98;;;23.50;99.90;;;;;;4979088;28;20039;-70
2022/08/19 08:25:18;;;;;;;13.38;9.05;;;23.80;99.90;;;;;;4959499;29;20142;-70
2022/08/19 08:27:45;;;;;;;12.27;7.38;;;23.50;99.90;;;;;;4966939;28;20173;-70
2022/08/19 08:30:15;;;;;;;10.65;5.93;;;23.40;99.90;;;;;;4977674;28;20062;-70
2022/08/19 08:32:41;;;;;;;9.38;5.18;;;23.60;99.90;;;;;;4979016;28;20074;-70
2022/08/19 08:35:10;;;;;;;7.88;5.65;;;23.70;99.90;;;;;;4978906;28;20126;-70
2022/08/19 08:37:36;;;;;;;10.25;8.25;;;23.90;99.90;;;;;;4976564;28;20050;-70
2022/08/19 08:40:20;;;;;;;8.93;6.40;;;23.90;99.90;;;;;;4959221;28;20043;-70
2022/08/19 08:42:58;;;;;;;9.65;7.57;;;24.00;99.90;;;;;;4959724;28;20039;-71
2022/08/19 08:45:24;;;;;;;10.00;7.90;;;24.10;99.90;;;;;;4959518;28;20045;-72
2022/08/19 08:47:53;;;;;;;12.18;6.88;;;24.20;99.90;;;;;;4959296;28;20039;-72
2022/08/19 08:50:52;;;;;;;8.15;6.32;;;24.60;99.90;;;;;;4959092;28;20043;-72
2022/08/19 08:53:19;;;;;;;9.63;7.35;;;24.60;99.90;;;;;;4958546;28;20066;-70
2022/08/19 08:55:47;;;;;;;9.23;6.57;;;24.50;99.90;;;;;;4959397;28;20039;-68
2022/08/19 08:58:20;;;;;;;12.40;6.07;;;24.40;99.90;;;;;;4959215;28;20050;-68
2022/08/19 09:00:48;;;;;;;6.85;5.22;;;24.60;99.90;;;;;;4958826;28;20422;-68
2022/08/19 09:03:24;;;;;;;9.50;6.18;;;24.60;99.90;;;;;;4959153;28;20043;-68
2022/08/19 09:06:23;;;;;;;9.85;6.30;;;24.50;99.90;;;;;;4959208;29;20039;-70
2022/08/19 09:09:10;;;;;;;10.80;7.05;;;24.60;99.90;;;;;;4967786;28;20429;-75
2022/08/19 09:11:39;;;;;;;11.55;7.65;;;24.70;99.90;;;;;;4976950;28;20042;-69
2022/08/19 09:14:41;;;;;;;12.10;8.45;;;24.60;99.90;;;;;;4977738;28;20046;-69
2022/08/19 09:17:08;;;;;;;8.30;6.70;;;24.80;99.90;;;;;;4973769;28;20066;-69
2022/08/19 09:19:47;;;;;;;12.20;8.38;;;25.00;99.90;;;;;;4978285;28;20042;-69
2022/08/19 09:22:12;;;;;;;10.43;8.30;;;25.10;99.90;;;;;;4978331;28;20426;-68
2022/08/19 09:24:39;;;;;;;9.23;7.30;;;25.50;99.90;;;;;;4977740;28;20048;-69
2022/08/19 09:27:05;;;;;;;9.68;8.52;;;25.50;99.90;;;;;;4978408;28;20044;-69
2022/08/19 09:29:30;;;;;;;13.75;8.38;;;25.50;99.90;;;;;;4977918;28;20345;-69
2022/08/19 09:31:56;;;;;;;10.30;8.27;;;25.60;99.90;;;;;;4978010;28;20074;-70
2022/08/19 09:34:22;;;;;;;11.70;8.98;;;25.80;99.90;;;;;;4977950;28;20093;-68
2022/08/19 09:36:52;;;;;;;10.55;8.65;;;25.60;99.90;;;;;;4977886;28;20042;-68
2022/08/19 09:39:18;;;;;;;11.70;7.93;;;25.50;99.90;;;;;;4993172;28;20049;-68
2022/08/19 09:41:44;;;;;;;9.25;8.00;;;25.60;99.90;;;;;;4977638;28;20043;-68
2022/08/19 09:44:12;;;;;;;11.13;9.07;;;25.70;99.90;;;;;;4978035;28;20345;-68
2022/08/19 09:46:38;;;;;;;12.88;9.00;;;25.80;99.90;;;;;;4977801;28;20046;-69
2022/08/19 09:49:05;;;;;;;12.77;9.73;;;26.00;99.90;;;;;;4977774;28;20315;-69
2022/08/19 09:51:32;;;;;;;12.32;9.05;;;25.90;99.90;;;;;;4976730;28;20050;-69
2022/08/19 09:54:02;;;;;;;8.32;7.07;;;25.80;99.90;;;;;;4977441;28;20133;-68
2022/08/19 09:56:30;;;;;;;13.00;9.80;;;26.10;99.90;;;;;;4977996;28;20109;-68
2022/08/19 09:58:57;;;;;;;14.80;9.80;;;26.40;99.90;;;;;;4977672;28;20040;-68
2022/08/19 10:01:25;;;;;;;11.63;9.35;;;26.50;99.90;;;;;;4977682;28;20070;-68
2022/08/19 10:03:54;;;;;;;14.80;10.95;;;26.40;99.90;;;;;;4977873;28;20043;-68
2022/08/19 10:06:22;;;;;;;14.57;9.75;;;26.10;99.90;;;;;;4977886;28;20047;-68
2022/08/19 10:08:48;;;;;;;13.43;9.38;;;26.10;99.90;;;;;;4977579;28;20049;-68
2022/08/19 10:11:15;;;;;;;11.73;9.45;;;26.30;99.90;;;;;;4977893;28;20326;-68
2022/08/19 10:13:43;;;;;;;11.32;8.82;;;26.80;99.90;;;;;;4992622;28;20057;-65
2022/08/19 10:16:12;;;;;;;10.40;9.07;;;27.10;99.90;;;;;;4977791;28;20117;-67
2022/08/19 10:18:42;;;;;;;11.48;9.82;;;27.40;99.90;;;;;;4977438;28;20045;-67
2022/08/19 10:21:16;;;;;;;10.48;8.90;;;27.30;99.90;;;;;;4977537;28;20146;-67
2022/08/19 10:23:45;;;;;;;14.88;9.63;;;27.40;99.90;;;;;;4977487;28;20425;-67
2022/08/19 10:26:13;;;;;;;12.85;9.40;;;27.60;99.90;;;;;;4976264;28;20039;-69
2022/08/19 10:28:39;;;;;;;10.02;8.25;;;27.80;99.90;;;;;;4977754;28;20035;-68
2022/08/19 10:31:11;;;;;;;12.52;8.82;;;27.80;99.90;;;;;;4976447;28;20054;-68
2022/08/19 10:33:38;;;;;;;8.77;7.53;;;27.90;99.90;;;;;;4977709;28;20369;-70
2022/08/19 10:36:07;;;;;;;10.82;8.05;;;27.90;99.90;;;;;;4977226;28;20039;-69
2022/08/19 10:38:33;;;;;;;9.55;7.45;;;27.70;99.90;;;;;;4977482;28;20167;-69
2022/08/19 10:41:13;;;;;;;11.50;8.73;;;27.90;99.90;;;;;;4977032;28;20086;-69
2022/08/19 10:43:40;;;;;;;9.93;8.43;;;27.90;99.90;;;;;;4977452;28;20035;-69
2022/08/19 10:46:11;;;;;;;12.45;9.20;;;28.20;99.90;;;;;;4977457;28;20063;-68
2022/08/19 10:48:37;;;;;;;12.85;8.95;;;28.30;99.90;;;;;;4977284;28;20053;-69
2022/08/19 10:53:47;;;;;;;11.07;8.32;;;28.40;99.90;;;;;;4979339;28;20388;-69
2022/08/19 10:58:58;;;;;;;11.52;8.52;;;28.30;99.80;;;;;;4980953;28;20389;-68
2022/08/19 11:01:29;;;;;;;10.45;8.50;;;28.00;99.90;;;;;;4980834;28;20039;-68
2022/08/19 11:03:57;;;;;;;9.18;7.70;;;28.00;99.90;;;;;;4980663;28;20049;-68
2022/08/19 11:06:24;;;;;;;9.05;7.85;;;28.20;99.90;;;;;;4980859;28;20079;-70
2022/08/19 11:08:52;;;;;;;14.48;9.73;;;28.70;99.90;;;;;;4980637;28;20444;-68
2022/08/19 11:11:17;;;;;;;16.02;10.90;;;28.90;99.90;;;;;;4980581;28;20417;-68
2022/08/19 11:13:45;;;;;;;13.80;10.18;;;28.50;99.80;;;;;;4981964;28;20043;-67
2022/08/19 11:16:17;;;;;;;12.90;10.75;;;28.40;99.90;;;;;;4980487;28;20122;-69
2022/08/19 11:18:46;;;;;;;13.05;10.48;;;28.20;99.80;;;;;;4996032;28;20043;-69
2022/08/19 11:21:13;;;;;;;13.82;10.95;;;27.60;99.90;;;;;;4980299;28;20035;-69
2022/08/19 11:23:39;;;;;;;14.10;11.48;;;27.60;99.90;;;;;;4980570;28;20043;-69
2022/08/19 11:26:06;;;;;;;12.00;9.50;;;27.80;99.90;;;;;;4980062;28;20073;-66
2022/08/19 11:28:31;;;;;;;11.65;9.85;;;28.00;99.90;;;;;;4980316;28;20038;-72
2022/08/19 11:30:57;;;;;;;12.02;8.80;;;27.90;99.40;;;;;;4980176;28;20501;-72
2022/08/19 11:33:23;;;;;;;13.73;10.23;;;27.70;99.90;;;;;;4980522;28;20321;-72
2022/08/19 11:35:49;;;;;;;12.32;10.75;;;27.70;99.90;;;;;;4980239;28;20053;-69
2022/08/19 11:38:15;;;;;;;10.48;9.15;;;27.80;99.90;;;;;;4980197;28;20038;-69
2022/08/19 11:40:41;;;;;;;18.02;12.05;;;27.90;99.90;;;;;;4980080;28;20058;-68
2022/08/19 11:43:09;;;;;;;13.05;10.75;;;27.60;99.90;;;;;;4980072;28;20046;-68
2022/08/19 11:45:35;;;;;;;14.57;10.73;;;27.40;99.90;;;;;;4979929;28;20433;-68
2022/08/19 11:48:01;;;;;;;13.23;9.82;;;27.50;99.90;;;;;;4979885;28;20038;-68
2022/08/19 11:50:27;;;;;;;13.40;9.60;;;28.00;99.90;;;;;;4980062;28;20126;-68
2022/08/19 11:52:55;;;;;;;12.90;10.65;;;28.10;99.90;;;;;;4979910;28;20074;-68
2022/08/19 11:55:21;;;;;;;11.38;8.93;;;28.40;99.90;;;;;;4979426;28;20043;-68
2022/08/19 11:57:47;;;;;;;11.40;9.00;;;28.70;99.90;;;;;;4979847;28;20065;-68
2022/08/19 12:00:13;;;;;;;13.73;10.60;;;29.00;99.90;;;;;;4979768;28;20047;-68
2022/08/19 12:02:40;;;;;;;14.23;12.73;;;29.00;99.90;;;;;;4979778;28;20493;-68
2022/08/19 12:05:06;;;;;;;13.98;10.02;;;28.90;99.60;;;;;;4978618;28;20320;-68
2022/08/19 12:07:33;;;;;;;15.30;12.98;;;28.90;99.90;;;;;;4979684;28;20039;-68
2022/08/19 12:10:00;;;;;;;15.68;11.88;;;28.80;99.60;;;;;;4995038;28;20078;-68
2022/08/19 12:12:26;;;;;;;14.95;11.70;;;28.60;99.70;;;;;;4979532;28;20061;-68
2022/08/19 12:14:56;;;;;;;12.60;9.93;;;28.30;99.80;;;;;;4979448;28;20425;-68
2022/08/19 12:17:26;;;;;;;10.18;8.43;;;28.20;99.80;;;;;;4979503;28;20043;-68
2022/08/19 12:19:53;;;;;;;9.27;7.50;;;28.10;99.90;;;;;;4979782;28;20070;-68
2022/08/19 12:22:19;;;;;;;8.18;7.28;;;28.10;99.60;;;;;;4978279;28;20126;-68
2022/08/19 12:24:45;;;;;;;9.23;7.28;;;28.20;99.60;;;;;;4979334;28;20054;-88
2022/08/19 12:27:11;;;;;;;11.63;8.15;;;28.30;99.60;;;;;;4978490;28;20039;-87
2022/08/19 12:29:36;;;;;;;10.30;9.18;;;27.80;99.90;;;;;;4994411;28;20054;-68
2022/08/19 12:32:03;;;;;;;10.43;9.38;;;27.60;99.90;;;;;;4979405;28;20046;-68
2022/08/19 12:34:30;;;;;;;12.57;8.80;;;27.70;99.90;;;;;;4979195;28;20061;-68
2022/08/19 12:36:58;;;;;;;11.15;9.15;;;28.00;99.90;;;;;;4978295;28;20062;-68
2022/08/19 12:39:24;;;;;;;10.60;7.97;;;28.10;99.60;;;;;;4979096;28;20030;-68
2022/08/19 12:41:50;;;;;;;11.20;9.63;;;28.00;99.90;;;;;;4978784;28;20425;-68
2022/08/19 12:44:16;;;;;;;11.48;9.48;;;28.10;99.80;;;;;;4978827;28;20089;-68
2022/08/19 12:46:42;;;;;;;12.13;9.48;;;27.70;99.80;;;;;;4994428;28;20058;-68
2022/08/19 12:49:09;;;;;;;14.07;9.63;;;27.50;99.90;;;;;;4978154;28;20042;-67
2022/08/19 12:51:35;;;;;;;13.07;8.98;;;27.70;99.90;;;;;;4978983;28;20054;-68
2022/08/19 12:54:01;;;;;;;10.75;7.80;;;27.60;99.90;;;;;;4978449;28;20089;-68
2022/08/19 12:56:27;;;;;;;14.30;9.85;;;27.90;99.90;;;;;;4978663;28;20042;-69
2022/08/19 12:58:53;;;;;;;13.63;9.32;;;28.10;99.60;;;;;;4978830;28;20507;-69
2022/08/19 13:01:20;;;;;;;10.52;8.35;;;27.90;99.90;;;;;;4977501;28;20051;-71
2022/08/19 13:03:46;;;;;;;10.15;7.30;;;27.70;99.90;;;;;;4976732;28;20031;-68